sensor_id;sensor_type;location;lat;lon;timestamp;temperature;humidity
51175;DHT22;37240;50.104;20.010;2023-09-18T00:01:32;21.20;97.20
51175;DHT22;37240;50.104;20.010;2023-09-18T00:06:33;21.10;97.90
51175;DHT22;37240;50.104;20.010;2023-09-18T00:11:34;21.10;97.90
51175;DHT22;37240;50.104;20.010;2023-09-18T00:16:35;21.00;97.70
51175;DHT22;37240;50.104;20.010;2023-09-18T00:21:35;21.00;98.40
51175;DHT22;37240;50.104;20.010;2023-09-18T00:26:36;21.00;98.60
51175;DHT22;37240;50.104;20.010;2023-09-18T00:31:37;21.10;98.70
51175;DHT22;37240;50.104;20.010;2023-09-18T00:36:37;21.10;98.50
51175;DHT22;37240;50.104;20.010;2023-09-18T00:41:38;21.20;98.20
51175;DHT22;37240;50.104;20.010;2023-09-18T00:46:38;21.20;98.50
51175;DHT22;37240;50.104;20.010;2023-09-18T00:51:39;21.30;98.30
51175;DHT22;37240;50.104;20.010;2023-09-18T00:56:40;21.30;98.00
51175;DHT22;37240;50.104;20.010;2023-09-18T01:01:42;21.10;98.30
51175;DHT22;37240;50.104;20.010;2023-09-18T01:06:43;21.00;98.50
51175;DHT22;37240;50.104;20.010;2023-09-18T01:16:59;21.00;99.10
51175;DHT22;37240;50.104;20.010;2023-09-18T01:22:00;20.80;98.80
51175;DHT22;37240;50.104;20.010;2023-09-18T01:27:01;20.80;99.00
51175;DHT22;37240;50.104;20.010;2023-09-18T01:32:02;20.80;98.60
51175;DHT22;37240;50.104;20.010;2023-09-18T01:37:06;20.80;98.50
51175;DHT22;37240;50.104;20.010;2023-09-18T01:42:07;20.70;98.00
51175;DHT22;37240;50.104;20.010;2023-09-18T01:47:11;20.60;97.60
51175;DHT22;37240;50.104;20.010;2023-09-18T01:52:12;20.60;97.50
51175;DHT22;37240;50.104;20.010;2023-09-18T01:57:13;20.50;97.60
51175;DHT22;37240;50.104;20.010;2023-09-18T02:02:13;20.50;97.50
51175;DHT22;37240;50.104;20.010;2023-09-18T02:07:14;20.40;97.90
51175;DHT22;37240;50.104;20.010;2023-09-18T02:12:14;20.40;98.60
51175;DHT22;37240;50.104;20.010;2023-09-18T02:17:15;20.40;98.50
51175;DHT22;37240;50.104;20.010;2023-09-18T02:22:15;20.50;98.00
51175;DHT22;37240;50.104;20.010;2023-09-18T02:27:16;20.40;98.90
51175;DHT22;37240;50.104;20.010;2023-09-18T02:32:16;20.50;99.00
51175;DHT22;37240;50.104;20.010;2023-09-18T02:37:17;20.40;98.30
51175;DHT22;37240;50.104;20.010;2023-09-18T02:42:18;20.40;98.40
51175;DHT22;37240;50.104;20.010;2023-09-18T02:47:18;20.40;97.80
51175;DHT22;37240;50.104;20.010;2023-09-18T02:52:19;20.40;97.70
51175;DHT22;37240;50.104;20.010;2023-09-18T02:57:19;20.50;98.10
51175;DHT22;37240;50.104;20.010;2023-09-18T03:02:20;20.50;98.20
51175;DHT22;37240;50.104;20.010;2023-09-18T03:07:20;20.40;97.80
51175;DHT22;37240;50.104;20.010;2023-09-18T03:12:21;20.40;97.50
51175;DHT22;37240;50.104;20.010;2023-09-18T03:17:21;20.40;97.50
51175;DHT22;37240;50.104;20.010;2023-09-18T03:22:22;20.30;97.80
51175;DHT22;37240;50.104;20.010;2023-09-18T03:27:22;20.30;98.70
51175;DHT22;37240;50.104;20.010;2023-09-18T03:32:23;20.30;98.80
51175;DHT22;37240;50.104;20.010;2023-09-18T03:37:24;20.40;99.30
51175;DHT22;37240;50.104;20.010;2023-09-18T03:42:25;20.50;99.20
51175;DHT22;37240;50.104;20.010;2023-09-18T03:47:26;20.60;98.80
51175;DHT22;37240;50.104;20.010;2023-09-18T03:52:27;20.50;98.90
51175;DHT22;37240;50.104;20.010;2023-09-18T03:57:27;20.40;99.00
51175;DHT22;37240;50.104;20.010;2023-09-18T04:02:28;20.40;99.20
51175;DHT22;37240;50.104;20.010;2023-09-18T04:07:28;20.40;99.20
51175;DHT22;37240;50.104;20.010;2023-09-18T04:12:29;20.60;99.00
51175;DHT22;37240;50.104;20.010;2023-09-18T04:17:29;20.50;98.80
51175;DHT22;37240;50.104;20.010;2023-09-18T04:22:30;20.30;99.20
51175;DHT22;37240;50.104;20.010;2023-09-18T04:27:31;20.30;99.40
51175;DHT22;37240;50.104;20.010;2023-09-18T04:32:31;20.30;99.40
51175;DHT22;37240;50.104;20.010;2023-09-18T04:37:36;20.30;99.60
51175;DHT22;37240;50.104;20.010;2023-09-18T04:42:38;20.30;99.60
51175;DHT22;37240;50.104;20.010;2023-09-18T04:47:39;20.20;99.90
51175;DHT22;37240;50.104;20.010;2023-09-18T04:52:40;20.20;99.70
51175;DHT22;37240;50.104;20.010;2023-09-18T04:57:40;20.10;99.90
51175;DHT22;37240;50.104;20.010;2023-09-18T05:02:41;20.20;99.90
51175;DHT22;37240;50.104;20.010;2023-09-18T05:07:42;20.20;99.80
51175;DHT22;37240;50.104;20.010;2023-09-18T05:12:42;20.20;99.70
51175;DHT22;37240;50.104;20.010;2023-09-18T05:17:45;20.30;99.60
51175;DHT22;37240;50.104;20.010;2023-09-18T05:22:46;20.40;99.80
51175;DHT22;37240;50.104;20.010;2023-09-18T05:27:47;20.40;99.40
51175;DHT22;37240;50.104;20.010;2023-09-18T05:32:47;20.30;99.70
51175;DHT22;37240;50.104;20.010;2023-09-18T05:37:49;20.40;99.90
51175;DHT22;37240;50.104;20.010;2023-09-18T05:42:50;20.70;99.90
51175;DHT22;37240;50.104;20.010;2023-09-18T05:47:51;21.00;99.50
51175;DHT22;37240;50.104;20.010;2023-09-18T05:52:51;21.30;98.60
51175;DHT22;37240;50.104;20.010;2023-09-18T05:57:52;21.60;98.30
51175;DHT22;37240;50.104;20.010;2023-09-18T06:02:53;21.90;97.70
51175;DHT22;37240;50.104;20.010;2023-09-18T06:07:54;22.20;96.50
51175;DHT22;37240;50.104;20.010;2023-09-18T06:12:54;22.40;96.80
51175;DHT22;37240;50.104;20.010;2023-09-18T06:17:55;22.80;96.50
51175;DHT22;37240;50.104;20.010;2023-09-18T06:22:55;23.10;96.00
51175;DHT22;37240;50.104;20.010;2023-09-18T06:27:56;23.60;95.00
51175;DHT22;37240;50.104;20.010;2023-09-18T06:32:57;23.90;94.30
51175;DHT22;37240;50.104;20.010;2023-09-18T06:37:57;24.20;93.30
51175;DHT22;37240;50.104;20.010;2023-09-18T06:42:59;24.60;93.00
51175;DHT22;37240;50.104;20.010;2023-09-18T06:47:59;24.90;92.00
51175;DHT22;37240;50.104;20.010;2023-09-18T06:53:00;25.20;91.70
51175;DHT22;37240;50.104;20.010;2023-09-18T06:58:00;25.50;91.20
51175;DHT22;37240;50.104;20.010;2023-09-18T07:03:01;25.80;90.40
51175;DHT22;37240;50.104;20.010;2023-09-18T07:08:02;26.00;89.60
51175;DHT22;37240;50.104;20.010;2023-09-18T07:13:02;26.10;89.60
51175;DHT22;37240;50.104;20.010;2023-09-18T07:18:03;26.20;85.90
51175;DHT22;37240;50.104;20.010;2023-09-18T07:23:04;26.40;85.30
51175;DHT22;37240;50.104;20.010;2023-09-18T07:28:06;26.60;85.40
51175;DHT22;37240;50.104;20.010;2023-09-18T07:33:07;26.80;85.70
51175;DHT22;37240;50.104;20.010;2023-09-18T07:38:07;27.00;85.50
51175;DHT22;37240;50.104;20.010;2023-09-18T07:43:08;27.30;83.10
51175;DHT22;37240;50.104;20.010;2023-09-18T07:48:09;27.40;82.20
51175;DHT22;37240;50.104;20.010;2023-09-18T07:53:09;27.60;80.60
51175;DHT22;37240;50.104;20.010;2023-09-18T07:58:10;27.90;79.50
51175;DHT22;37240;50.104;20.010;2023-09-18T08:03:10;27.90;78.80
51175;DHT22;37240;50.104;20.010;2023-09-18T08:08:11;27.90;79.00
51175;DHT22;37240;50.104;20.010;2023-09-18T08:13:11;28.00;79.80
51175;DHT22;37240;50.104;20.010;2023-09-18T08:18:12;28.20;78.10
51175;DHT22;37240;50.104;20.010;2023-09-18T08:23:13;28.40;73.30
51175;DHT22;37240;50.104;20.010;2023-09-18T08:28:13;28.50;73.30
51175;DHT22;37240;50.104;20.010;2023-09-18T08:33:14;28.60;74.00
51175;DHT22;37240;50.104;20.010;2023-09-18T08:38:14;28.60;72.30
51175;DHT22;37240;50.104;20.010;2023-09-18T08:43:16;28.70;72.30
51175;DHT22;37240;50.104;20.010;2023-09-18T08:48:18;28.80;70.50
51175;DHT22;37240;50.104;20.010;2023-09-18T08:53:19;28.90;70.00
51175;DHT22;37240;50.104;20.010;2023-09-18T08:58:19;28.90;68.40
51175;DHT22;37240;50.104;20.010;2023-09-18T09:03:20;28.90;68.80
51175;DHT22;37240;50.104;20.010;2023-09-18T09:08:20;28.90;69.50
51175;DHT22;37240;50.104;20.010;2023-09-18T09:13:21;28.90;68.80
51175;DHT22;37240;50.104;20.010;2023-09-18T09:18:23;29.00;66.50
51175;DHT22;37240;50.104;20.010;2023-09-18T09:23:24;29.10;66.50
51175;DHT22;37240;50.104;20.010;2023-09-18T09:28:31;28.90;65.70
51175;DHT22;37240;50.104;20.010;2023-09-18T09:33:32;29.00;66.60
51175;DHT22;37240;50.104;20.010;2023-09-18T09:38:34;29.00;64.90
51175;DHT22;37240;50.104;20.010;2023-09-18T09:43:35;28.90;66.30
51175;DHT22;37240;50.104;20.010;2023-09-18T09:48:37;28.90;65.00
51175;DHT22;37240;50.104;20.010;2023-09-18T09:53:47;28.80;62.60
51175;DHT22;37240;50.104;20.010;2023-09-18T09:59:01;28.90;62.90
51175;DHT22;37240;50.104;20.010;2023-09-18T10:04:15;28.70;62.90
51175;DHT22;37240;50.104;20.010;2023-09-18T10:09:17;28.60;61.40
51175;DHT22;37240;50.104;20.010;2023-09-18T10:14:21;28.60;63.10
51175;DHT22;37240;50.104;20.010;2023-09-18T10:19:45;28.60;64.00
51175;DHT22;37240;50.104;20.010;2023-09-18T10:24:52;28.60;62.30
51175;DHT22;37240;50.104;20.010;2023-09-18T10:29:54;28.40;62.30
51175;DHT22;37240;50.104;20.010;2023-09-18T10:34:55;28.40;63.40
51175;DHT22;37240;50.104;20.010;2023-09-18T10:39:57;28.40;63.50
51175;DHT22;37240;50.104;20.010;2023-09-18T10:44:59;28.30;63.00
51175;DHT22;37240;50.104;20.010;2023-09-18T10:50:00;28.20;63.10
51175;DHT22;37240;50.104;20.010;2023-09-18T10:55:01;28.10;63.30
51175;DHT22;37240;50.104;20.010;2023-09-18T11:00:03;28.10;64.20
51175;DHT22;37240;50.104;20.010;2023-09-18T11:05:05;28.00;64.70
51175;DHT22;37240;50.104;20.010;2023-09-18T11:10:26;28.10;65.80
51175;DHT22;37240;50.104;20.010;2023-09-18T11:15:32;28.00;66.20
51175;DHT22;37240;50.104;20.010;2023-09-18T11:20:33;28.00;67.10
51175;DHT22;37240;50.104;20.010;2023-09-18T11:30:35;30.30;59.90
51175;DHT22;37240;50.104;20.010;2023-09-18T11:35:36;31.00;57.80
51175;DHT22;37240;50.104;20.010;2023-09-18T11:40:38;31.40;56.20
51175;DHT22;37240;50.104;20.010;2023-09-18T11:45:41;31.40;56.30
51175;DHT22;37240;50.104;20.010;2023-09-18T11:50:43;31.40;56.20
51175;DHT22;37240;50.104;20.010;2023-09-18T11:55:44;31.20;55.60
51175;DHT22;37240;50.104;20.010;2023-09-18T12:00:44;31.30;56.30
51175;DHT22;37240;50.104;20.010;2023-09-18T12:05:45;31.30;55.70
51175;DHT22;37240;50.104;20.010;2023-09-18T12:10:51;31.30;55.40
51175;DHT22;37240;50.104;20.010;2023-09-18T12:16:04;31.50;53.20
51175;DHT22;37240;50.104;20.010;2023-09-18T12:21:08;31.60;53.90
51175;DHT22;37240;50.104;20.010;2023-09-18T12:26:13;31.80;53.80
51175;DHT22;37240;50.104;20.010;2023-09-18T12:31:14;31.90;53.70
51175;DHT22;37240;50.104;20.010;2023-09-18T12:36:19;31.90;50.90
51175;DHT22;37240;50.104;20.010;2023-09-18T12:41:20;32.10;49.90
51175;DHT22;37240;50.104;20.010;2023-09-18T12:46:21;32.00;49.60
51175;DHT22;37240;50.104;20.010;2023-09-18T12:51:29;31.70;49.50
51175;DHT22;37240;50.104;20.010;2023-09-18T12:56:30;31.30;50.80
51175;DHT22;37240;50.104;20.010;2023-09-18T13:01:30;31.00;51.60
51175;DHT22;37240;50.104;20.010;2023-09-18T13:06:31;30.80;50.40
51175;DHT22;37240;50.104;20.010;2023-09-18T13:11:31;31.40;50.30
51175;DHT22;37240;50.104;20.010;2023-09-18T13:16:32;32.10;49.60
51175;DHT22;37240;50.104;20.010;2023-09-18T13:21:33;32.60;48.60
51175;DHT22;37240;50.104;20.010;2023-09-18T13:26:33;31.90;48.60
51175;DHT22;37240;50.104;20.010;2023-09-18T13:31:34;31.30;50.00
51175;DHT22;37240;50.104;20.010;2023-09-18T13:36:34;31.00;50.70
51175;DHT22;37240;50.104;20.010;2023-09-18T13:41:35;30.70;50.90
51175;DHT22;37240;50.104;20.010;2023-09-18T13:46:37;30.50;51.70
51175;DHT22;37240;50.104;20.010;2023-09-18T13:51:37;31.00;50.60
51175;DHT22;37240;50.104;20.010;2023-09-18T13:56:38;31.60;50.30
51175;DHT22;37240;50.104;20.010;2023-09-18T14:01:38;32.10;48.80
51175;DHT22;37240;50.104;20.010;2023-09-18T14:06:39;32.30;46.80
51175;DHT22;37240;50.104;20.010;2023-09-18T14:11:39;32.50;47.70
51175;DHT22;37240;50.104;20.010;2023-09-18T14:16:40;32.50;48.10
51175;DHT22;37240;50.104;20.010;2023-09-18T14:21:40;32.50;48.60
51175;DHT22;37240;50.104;20.010;2023-09-18T14:26:41;32.50;48.20
51175;DHT22;37240;50.104;20.010;2023-09-18T14:31:42;32.40;47.70
51175;DHT22;37240;50.104;20.010;2023-09-18T14:36:42;32.60;47.50
51175;DHT22;37240;50.104;20.010;2023-09-18T14:41:43;32.30;47.10
51175;DHT22;37240;50.104;20.010;2023-09-18T14:46:43;31.80;47.70
51175;DHT22;37240;50.104;20.010;2023-09-18T14:51:44;31.40;48.30
51175;DHT22;37240;50.104;20.010;2023-09-18T14:56:44;31.10;49.20
51175;DHT22;37240;50.104;20.010;2023-09-18T15:01:45;30.90;50.20
51175;DHT22;37240;50.104;20.010;2023-09-18T15:06:45;31.30;49.00
51175;DHT22;37240;50.104;20.010;2023-09-18T15:11:46;31.80;48.00
51175;DHT22;37240;50.104;20.010;2023-09-18T15:16:46;32.10;47.50
51175;DHT22;37240;50.104;20.010;2023-09-18T15:21:47;32.30;47.40
51175;DHT22;37240;50.104;20.010;2023-09-18T15:26:48;32.60;46.10
51175;DHT22;37240;50.104;20.010;2023-09-18T15:31:48;32.60;45.60
51175;DHT22;37240;50.104;20.010;2023-09-18T15:36:49;32.50;45.80
51175;DHT22;37240;50.104;20.010;2023-09-18T15:41:50;32.30;46.10
51175;DHT22;37240;50.104;20.010;2023-09-18T15:46:51;32.10;46.60
51175;DHT22;37240;50.104;20.010;2023-09-18T15:51:51;32.10;46.60
51175;DHT22;37240;50.104;20.010;2023-09-18T15:56:52;32.10;47.10
51175;DHT22;37240;50.104;20.010;2023-09-18T16:01:52;31.80;47.60
51175;DHT22;37240;50.104;20.010;2023-09-18T16:06:53;31.60;47.80
51175;DHT22;37240;50.104;20.010;2023-09-18T16:11:53;31.50;48.30
51175;DHT22;37240;50.104;20.010;2023-09-18T16:16:54;31.10;49.20
51175;DHT22;37240;50.104;20.010;2023-09-18T16:21:54;30.70;49.80
51175;DHT22;37240;50.104;20.010;2023-09-18T16:26:55;30.30;50.70
51175;DHT22;37240;50.104;20.010;2023-09-18T16:31:56;30.00;51.20
51175;DHT22;37240;50.104;20.010;2023-09-18T16:36:56;29.80;51.60
51175;DHT22;37240;50.104;20.010;2023-09-18T16:41:57;29.50;52.30
51175;DHT22;37240;50.104;20.010;2023-09-18T16:46:58;29.30;53.10
51175;DHT22;37240;50.104;20.010;2023-09-18T16:51:58;29.10;53.80
51175;DHT22;37240;50.104;20.010;2023-09-18T16:56:59;28.90;54.10
51175;DHT22;37240;50.104;20.010;2023-09-18T17:01:59;28.80;54.80
51175;DHT22;37240;50.104;20.010;2023-09-18T17:07:00;28.70;55.40
51175;DHT22;37240;50.104;20.010;2023-09-18T17:12:00;28.50;55.70
51175;DHT22;37240;50.104;20.010;2023-09-18T17:17:01;28.40;55.90
51175;DHT22;37240;50.104;20.010;2023-09-18T17:22:02;28.20;56.50
51175;DHT22;37240;50.104;20.010;2023-09-18T17:27:04;28.10;56.70
51175;DHT22;37240;50.104;20.010;2023-09-18T17:32:05;28.00;57.00
51175;DHT22;37240;50.104;20.010;2023-09-18T17:37:06;27.70;57.20
51175;DHT22;37240;50.104;20.010;2023-09-18T17:42:07;27.60;58.00
51175;DHT22;37240;50.104;20.010;2023-09-18T17:47:07;27.40;58.80
51175;DHT22;37240;50.104;20.010;2023-09-18T17:52:08;27.30;60.10
51175;DHT22;37240;50.104;20.010;2023-09-18T17:57:09;27.10;59.70
51175;DHT22;37240;50.104;20.010;2023-09-18T18:02:10;27.10;59.80
51175;DHT22;37240;50.104;20.010;2023-09-18T18:07:10;27.20;59.20
51175;DHT22;37240;50.104;20.010;2023-09-18T18:12:11;27.20;59.00
51175;DHT22;37240;50.104;20.010;2023-09-18T18:17:11;27.20;58.80
51175;DHT22;37240;50.104;20.010;2023-09-18T18:22:12;27.20;59.30
51175;DHT22;37240;50.104;20.010;2023-09-18T18:27:13;27.10;60.10
51175;DHT22;37240;50.104;20.010;2023-09-18T18:32:14;26.90;60.80
51175;DHT22;37240;50.104;20.010;2023-09-18T18:37:14;26.60;61.90
51175;DHT22;37240;50.104;20.010;2023-09-18T18:42:15;26.50;62.50
51175;DHT22;37240;50.104;20.010;2023-09-18T18:47:15;26.50;62.60
51175;DHT22;37240;50.104;20.010;2023-09-18T18:52:16;26.50;62.60
51175;DHT22;37240;50.104;20.010;2023-09-18T18:57:17;26.40;63.10
51175;DHT22;37240;50.104;20.010;2023-09-18T19:02:17;26.40;62.60
51175;DHT22;37240;50.104;20.010;2023-09-18T19:07:18;26.30;62.50
51175;DHT22;37240;50.104;20.010;2023-09-18T19:12:18;26.20;62.40
51175;DHT22;37240;50.104;20.010;2023-09-18T19:17:19;26.20;62.60
51175;DHT22;37240;50.104;20.010;2023-09-18T19:22:20;26.10;64.20
51175;DHT22;37240;50.104;20.010;2023-09-18T19:27:20;26.00;64.80
51175;DHT22;37240;50.104;20.010;2023-09-18T19:32:21;25.80;65.70
51175;DHT22;37240;50.104;20.010;2023-09-18T19:37:21;25.80;67.40
51175;DHT22;37240;50.104;20.010;2023-09-18T19:42:22;25.70;68.10
51175;DHT22;37240;50.104;20.010;2023-09-18T19:47:23;25.50;68.80
51175;DHT22;37240;50.104;20.010;2023-09-18T19:52:23;25.40;69.00
51175;DHT22;37240;50.104;20.010;2023-09-18T19:57:24;25.40;68.80
51175;DHT22;37240;50.104;20.010;2023-09-18T20:02:24;25.40;69.40
51175;DHT22;37240;50.104;20.010;2023-09-18T20:07:25;25.20;70.40
51175;DHT22;37240;50.104;20.010;2023-09-18T20:12:26;25.10;71.00
51175;DHT22;37240;50.104;20.010;2023-09-18T20:17:26;25.00;71.70
51175;DHT22;37240;50.104;20.010;2023-09-18T20:22:27;25.00;71.80
51175;DHT22;37240;50.104;20.010;2023-09-18T20:27:29;25.00;72.70
51175;DHT22;37240;50.104;20.010;2023-09-18T20:32:29;24.80;73.50
51175;DHT22;37240;50.104;20.010;2023-09-18T20:37:31;24.70;74.60
51175;DHT22;37240;50.104;20.010;2023-09-18T20:42:32;24.70;74.60
51175;DHT22;37240;50.104;20.010;2023-09-18T20:47:32;24.70;74.80
51175;DHT22;37240;50.104;20.010;2023-09-18T20:52:33;24.60;75.30
51175;DHT22;37240;50.104;20.010;2023-09-18T20:57:34;24.50;75.90
51175;DHT22;37240;50.104;20.010;2023-09-18T21:02:34;24.40;77.10
51175;DHT22;37240;50.104;20.010;2023-09-18T21:07:35;24.20;77.60
51175;DHT22;37240;50.104;20.010;2023-09-18T21:12:36;24.20;78.30
51175;DHT22;37240;50.104;20.010;2023-09-18T21:17:37;24.00;79.00
51175;DHT22;37240;50.104;20.010;2023-09-18T21:22:38;24.00;79.60
51175;DHT22;37240;50.104;20.010;2023-09-18T21:27:38;24.00;79.80
51175;DHT22;37240;50.104;20.010;2023-09-18T21:32:39;23.90;80.10
51175;DHT22;37240;50.104;20.010;2023-09-18T21:37:39;23.80;81.00
51175;DHT22;37240;50.104;20.010;2023-09-18T21:42:41;23.80;81.20
51175;DHT22;37240;50.104;20.010;2023-09-18T21:47:42;23.80;81.10
51175;DHT22;37240;50.104;20.010;2023-09-18T21:52:42;23.80;81.00
51175;DHT22;37240;50.104;20.010;2023-09-18T21:57:43;23.70;81.30
51175;DHT22;37240;50.104;20.010;2023-09-18T22:02:44;23.70;81.50
51175;DHT22;37240;50.104;20.010;2023-09-18T22:07:44;23.70;81.90
51175;DHT22;37240;50.104;20.010;2023-09-18T22:12:45;23.80;82.20
51175;DHT22;37240;50.104;20.010;2023-09-18T22:17:45;23.80;81.70
51175;DHT22;37240;50.104;20.010;2023-09-18T22:22:47;23.80;82.30
51175;DHT22;37240;50.104;20.010;2023-09-18T22:27:47;23.70;83.20
51175;DHT22;37240;50.104;20.010;2023-09-18T22:32:48;23.60;83.60
51175;DHT22;37240;50.104;20.010;2023-09-18T22:37:56;23.50;84.20
51175;DHT22;37240;50.104;20.010;2023-09-18T22:59:14;23.20;85.90
51175;DHT22;37240;50.104;20.010;2023-09-18T23:04:15;23.10;86.00
51175;DHT22;37240;50.104;20.010;2023-09-18T23:09:16;23.20;87.10
51175;DHT22;37240;50.104;20.010;2023-09-18T23:14:16;23.10;86.50
51175;DHT22;37240;50.104;20.010;2023-09-18T23:19:17;23.10;86.90
51175;DHT22;37240;50.104;20.010;2023-09-18T23:24:17;23.20;86.80
51175;DHT22;37240;50.104;20.010;2023-09-18T23:29:18;23.10;87.10
51175;DHT22;37240;50.104;20.010;2023-09-18T23:34:18;23.10;87.20
51175;DHT22;37240;50.104;20.010;2023-09-18T23:39:20;23.00;87.70
51175;DHT22;37240;50.104;20.010;2023-09-18T23:44:20;22.90;88.30
51175;DHT22;37240;50.104;20.010;2023-09-18T23:49:21;23.00;88.70
51175;DHT22;37240;50.104;20.010;2023-09-18T23:54:21;22.80;88.80
51175;DHT22;37240;50.104;20.010;2023-09-18T23:59:22;23.00;88.30
